首页
METAR-TAF:

METAR-TAF

机场 :

盧布爾雅那約熱·普奇尼克機場

卢布尔雅那, 斯洛文尼亚

纬度: 46-13N, 经度: 014-29E, 海拔: 385米

当前天气观测

该预报发布于15分钟前的20:00 UTC
风速3节,风向东转东北
温度 20°C
湿度 78%
气压 1018 hPa
能见度10公里或以上
1500米以下无云,无积雨云

METAR: LJLJ 182000Z 07003KT CAVOK 20/16 Q1018 NOSIG

时间: 22:15 (20:15 UTC)

预报

该预报发布于3小时和15分钟前的17:00 UTC
预报有效从18日的 18点(UTC)到 19日的 18点(UTC)
风速8节,风向西
能见度10公里或以上
少量云层高于5000英尺

TAF: LJLJ 181700Z 1818/1918 26008KT 9999 FEW050

超过4000个机场的气象观测和天气预报(METAR&TAF报告)。

可查询的气象台以黄色和红色小点在地图上表示。

将鼠标移到小点上方,可查看气象台名称。

然后点击查看天气观测和预报。

如需切换地图:点击带黑十字的绿色按钮放大地图;点击带横线的绿色按钮缩小地图;或者点击绿色箭头查看邻近地区的地图。


METAR-TAF: